Time;durP1;ratioP1;P1;durP2;ratioP2;P2;SDS_P1;SDS_P2;PMS_P1;PMS_P2;Temp;Humidity;BMP_temperature;BMP_pressure;BME280_temperature;BME280_humidity;BME280_pressure;Samples;Min_cycle;Max_cycle;Signal;HPM_P1;HPM_P2
2022/12/20 00:05:35;;;;;;;2.73;2.20;;;11.10;99.90;;;;;;5066906;28;20199;-91
2022/12/20 00:08:22;;;;;;;4.20;2.70;;;11.10;99.90;;;;;;5067310;28;20238;-91
2022/12/20 00:10:57;;;;;;;2.90;2.43;;;11.10;99.90;;;;;;5067446;28;20669;-92
2022/12/20 00:13:24;;;;;;;3.97;2.60;;;11.00;99.90;;;;;;5066541;28;20218;-94
2022/12/20 00:19:02;;;;;;;4.07;2.50;;;10.90;99.90;;;;;;5066114;28;20676;-93
2022/12/20 00:21:45;;;;;;;3.00;2.63;;;10.80;99.90;;;;;;5065938;28;20203;-93
2022/12/20 00:24:22;;;;;;;3.03;2.73;;;10.70;99.90;;;;;;5065882;28;20198;-93
2022/12/20 00:26:58;;;;;;;3.50;2.70;;;10.60;99.90;;;;;;5063918;28;20198;-92
2022/12/20 00:29:41;;;;;;;3.13;2.80;;;10.60;99.90;;;;;;5063116;28;20230;-94
2022/12/20 00:32:37;;;;;;;3.73;2.97;;;10.50;99.90;;;;;;5064408;28;20206;-92
2022/12/20 00:35:30;;;;;;;3.00;2.80;;;10.40;99.90;;;;;;5064380;28;20229;-94
2022/12/20 00:38:11;;;;;;;3.27;2.90;;;10.40;99.90;;;;;;5068214;28;20253;-92
2022/12/20 00:41:23;;;;;;;4.87;3.60;;;10.30;99.90;;;;;;5068042;28;20464;-91
2022/12/20 00:44:03;;;;;;;3.50;3.20;;;10.30;99.90;;;;;;5067382;28;20202;-92
2022/12/20 00:46:38;;;;;;;5.20;3.10;;;10.40;99.90;;;;;;5067404;28;20258;-94
2022/12/20 00:49:36;;;;;;;5.37;3.20;;;10.40;99.90;;;;;;5067779;28;21093;-92
2022/12/20 00:52:05;;;;;;;4.13;3.07;;;10.50;99.90;;;;;;5070032;28;20187;-92
2022/12/20 00:57:15;;;;;;;6.18;3.70;;;10.50;99.90;;;;;;5076379;28;20410;-95
2022/12/20 00:59:45;;;;;;;3.43;2.90;;;10.50;99.90;;;;;;5077521;28;20207;-94
2022/12/20 01:02:12;;;;;;;3.17;2.70;;;10.60;99.90;;;;;;5077067;28;20235;-92
2022/12/20 01:04:41;;;;;;;4.43;2.63;;;10.50;99.90;;;;;;5074572;28;20621;-93
2022/12/20 01:07:29;;;;;;;5.53;2.80;;;10.60;99.90;;;;;;5070300;28;20242;-91
2022/12/20 01:10:07;;;;;;;4.03;2.97;;;10.50;99.90;;;;;;5064908;28;20214;-92
2022/12/20 01:12:38;;;;;;;2.80;2.60;;;10.50;99.90;;;;;;5064778;28;20652;-93
2022/12/20 01:15:10;;;;;;;3.87;3.03;;;10.40;99.90;;;;;;5063604;28;20206;-91
2022/12/20 01:17:58;;;;;;;4.30;2.97;;;10.50;99.90;;;;;;5065531;28;20640;-92
2022/12/20 01:20:31;;;;;;;2.77;2.40;;;10.50;99.90;;;;;;5064479;28;20262;-93
2022/12/20 01:23:05;;;;;;;2.50;2.30;;;10.60;99.90;;;;;;5063875;28;20229;-95
2022/12/20 01:25:42;;;;;;;5.83;2.53;;;10.60;99.90;;;;;;5062777;28;20225;-93
2022/12/20 01:28:09;;;;;;;3.13;2.73;;;10.60;99.90;;;;;;5063378;28;20264;-92
2022/12/20 01:30:51;;;;;;;2.67;2.30;;;10.70;99.90;;;;;;5063850;28;20233;-92
2022/12/20 01:33:28;;;;;;;3.17;2.40;;;10.70;99.90;;;;;;5063318;28;20248;-94
2022/12/20 01:36:01;;;;;;;2.20;2.07;;;10.70;99.90;;;;;;5063437;28;20298;-93
2022/12/20 01:39:07;;;;;;;6.30;2.50;;;10.70;99.90;;;;;;5064110;28;20234;-93
2022/12/20 01:41:44;;;;;;;2.30;2.10;;;10.70;99.90;;;;;;5066064;28;20229;-93
2022/12/20 01:44:45;;;;;;;3.87;2.40;;;10.70;99.90;;;;;;5067011;28;20198;-93
2022/12/20 01:47:27;;;;;;;2.63;2.27;;;10.80;99.90;;;;;;5078794;28;20233;-91
2022/12/20 01:50:51;;;;;;;3.00;2.67;;;10.80;99.90;;;;;;5070780;28;20252;-95
2022/12/20 01:53:58;;;;;;;2.77;2.57;;;10.70;99.90;;;;;;5066483;28;20230;-93
2022/12/20 01:56:40;;;;;;;3.57;2.67;;;10.60;99.90;;;;;;5066051;28;20274;-92
2022/12/20 01:59:37;;;;;;;2.90;2.23;;;10.50;99.90;;;;;;5064310;28;20257;-91
2022/12/20 02:02:17;;;;;;;3.03;2.67;;;10.40;99.90;;;;;;5066453;28;20210;-92
2022/12/20 02:04:50;;;;;;;4.30;3.10;;;10.50;99.90;;;;;;5064586;28;20210;-92
2022/12/20 02:07:29;;;;;;;2.90;2.70;;;10.50;99.90;;;;;;5064671;28;20205;-94
2022/12/20 02:10:18;;;;;;;2.90;2.63;;;10.50;99.90;;;;;;5065039;28;20206;-92
2022/12/20 02:12:51;;;;;;;2.80;2.43;;;10.60;99.90;;;;;;5066927;28;20191;-92
2022/12/20 02:15:52;;;;;;;3.83;2.70;;;10.60;99.90;;;;;;5067279;28;20187;-93
2022/12/20 02:18:39;;;;;;;2.90;2.60;;;10.60;99.90;;;;;;5067773;28;20228;-93
2022/12/20 02:21:39;;;;;;;2.53;2.30;;;10.60;99.90;;;;;;5067594;28;20302;-94
2022/12/20 02:24:51;;;;;;;3.37;2.53;;;10.70;99.90;;;;;;5066841;28;20268;-94
2022/12/20 02:27:59;;;;;;;5.67;3.23;;;10.70;99.90;;;;;;5065680;28;20225;-95
2022/12/20 02:30:50;;;;;;;3.77;2.13;;;10.70;99.90;;;;;;5062040;28;20214;-92
2022/12/20 02:34:14;;;;;;;5.33;2.77;;;10.80;99.90;;;;;;5066392;28;20215;-92
2022/12/20 02:37:09;;;;;;;4.37;2.90;;;10.80;99.90;;;;;;5064673;28;20623;-93
2022/12/20 02:39:54;;;;;;;2.87;2.67;;;10.80;99.90;;;;;;5063919;28;20245;-92
2022/12/20 02:42:26;;;;;;;2.60;2.40;;;10.80;99.90;;;;;;5063866;28;20300;-94
2022/12/20 02:45:16;;;;;;;2.40;2.20;;;10.80;99.90;;;;;;5066240;28;20229;-93
2022/12/20 02:48:25;;;;;;;3.57;2.30;;;10.90;99.90;;;;;;5066743;28;20245;-94
2022/12/20 02:51:12;;;;;;;4.43;2.60;;;11.00;99.90;;;;;;5067538;28;20214;-92
2022/12/20 02:53:42;;;;;;;4.53;2.50;;;11.00;99.90;;;;;;5070286;28;20210;-94
2022/12/20 02:56:21;;;;;;;4.37;2.60;;;11.00;99.90;;;;;;5071816;28;20247;-93
2022/12/20 02:59:16;;;;;;;2.63;2.43;;;11.00;99.90;;;;;;5066667;28;20230;-93
2022/12/20 03:02:22;;;;;;;2.60;2.37;;;11.10;99.90;;;;;;5067826;28;20322;-94
2022/12/20 03:05:02;;;;;;;4.65;3.00;;;11.10;99.90;;;;;;5067276;28;20456;-91
2022/12/20 03:08:06;;;;;;;3.20;2.47;;;11.20;99.90;;;;;;5067530;28;20286;-91
2022/12/20 03:10:53;;;;;;;3.20;2.50;;;11.30;99.90;;;;;;5063494;28;20230;-92
2022/12/20 03:13:58;;;;;;;2.83;2.50;;;11.30;99.90;;;;;;5065986;28;20195;-94
2022/12/20 03:17:22;;;;;;;2.50;2.27;;;11.30;99.90;;;;;;5062187;28;20226;-92
2022/12/20 03:20:10;;;;;;;3.97;2.85;;;11.20;99.90;;;;;;5067192;28;20432;-92
2022/12/20 03:26:15;;;;;;;3.70;2.30;;;11.20;99.90;;;;;;5066539;28;20207;-93
2022/12/20 03:28:51;;;;;;;3.80;2.30;;;11.20;99.90;;;;;;5068997;28;20230;-93
2022/12/20 03:31:31;;;;;;;4.73;2.93;;;11.10;99.90;;;;;;5070849;28;20206;-94
2022/12/20 03:34:14;;;;;;;4.73;2.50;;;11.20;99.90;;;;;;5072098;28;20216;-93
2022/12/20 03:37:02;;;;;;;3.45;2.75;;;11.10;99.90;;;;;;5071226;28;20433;-94
2022/12/20 03:39:40;;;;;;;7.10;2.53;;;11.20;99.90;;;;;;5072596;28;20228;-93
2022/12/20 03:42:25;;;;;;;4.00;2.33;;;11.30;99.90;;;;;;5073422;28;20211;-93
2022/12/20 03:51:16;;;;;;;4.60;2.70;;;11.10;99.90;;;;;;5068256;28;20233;-92
2022/12/20 03:53:46;;;;;;;2.80;2.37;;;11.00;99.90;;;;;;5067111;28;20207;-94
2022/12/20 03:56:22;;;;;;;3.30;2.70;;;11.00;99.90;;;;;;5067240;28;20207;-94
2022/12/20 03:59:12;;;;;;;3.47;2.53;;;11.00;99.90;;;;;;5067092;28;20223;-92
2022/12/20 04:02:36;;;;;;;3.83;2.50;;;11.00;99.90;;;;;;5067185;28;20222;-92
2022/12/20 04:05:43;;;;;;;2.87;2.67;;;11.00;99.90;;;;;;5066937;28;20275;-94
2022/12/20 04:08:56;;;;;;;3.10;2.20;;;11.00;99.90;;;;;;5065562;28;20223;-92
2022/12/20 04:11:53;;;;;;;2.50;2.20;;;11.10;99.90;;;;;;5067731;28;20202;-93
2022/12/20 04:14:59;;;;;;;4.70;2.60;;;11.10;99.90;;;;;;5070835;28;20222;-91
2022/12/20 04:18:13;;;;;;;5.27;2.63;;;11.10;99.90;;;;;;5070102;28;20265;-92
2022/12/20 04:21:16;;;;;;;3.20;2.47;;;11.20;99.90;;;;;;5069933;28;20297;-92
2022/12/20 04:26:58;;;;;;;4.80;2.50;;;11.10;99.90;;;;;;5070466;28;20206;-96
2022/12/20 04:29:46;;;;;;;5.30;1.90;;;11.10;99.90;;;;;;5073421;28;20226;-94
2022/12/20 04:32:38;;;;;;;4.60;2.23;;;11.10;99.90;;;;;;5074592;28;20582;-93
2022/12/20 04:38:13;;;;;;;3.23;1.90;;;11.20;99.90;;;;;;5071801;28;20285;-92
2022/12/20 04:40:56;;;;;;;6.27;3.00;;;11.20;99.90;;;;;;5070066;28;20219;-93
2022/12/20 04:43:53;;;;;;;3.83;2.17;;;11.30;99.90;;;;;;5070844;28;20215;-93
2022/12/20 04:46:49;;;;;;;2.30;2.03;;;11.30;99.90;;;;;;5070742;28;20199;-93
2022/12/20 04:49:25;;;;;;;4.07;2.43;;;11.30;99.90;;;;;;5068598;28;20236;-92
2022/12/20 04:55:02;;;;;;;4.40;2.03;;;11.30;99.90;;;;;;5067156;28;20187;-92
2022/12/20 04:57:34;;;;;;;5.47;2.45;;;11.20;99.90;;;;;;5067213;28;20437;-93
2022/12/20 05:00:23;;;;;;;3.23;2.00;;;11.30;99.90;;;;;;5073433;28;20234;-95
2022/12/20 05:09:18;;;;;;;2.47;2.27;;;11.20;99.90;;;;;;5075760;28;20227;-94
2022/12/20 05:14:46;;;;;;;2.87;1.83;;;11.10;99.90;;;;;;5075654;28;20207;-94
2022/12/20 05:17:34;;;;;;;3.43;1.80;;;11.20;99.90;;;;;;5076161;28;20178;-94
2022/12/20 05:33:41;;;;;;;2.93;2.10;;;11.10;99.90;;;;;;5076933;28;20266;-94
2022/12/20 06:03:28;;;;;;;3.47;1.77;;;11.30;99.90;;;;;;5076163;28;20227;-93
2022/12/20 06:10:16;;;;;;;1.70;1.60;;;11.20;99.90;;;;;;5076136;28;20260;-95
2022/12/20 06:19:08;;;;;;;1.80;1.50;;;11.30;99.90;;;;;;5075037;28;20294;-93
2022/12/20 06:30:49;;;;;;;3.13;1.70;;;11.50;99.90;;;;;;5074752;28;20229;-92
2022/12/20 06:39:22;;;;;;;2.60;1.70;;;11.60;99.90;;;;;;5071188;28;20228;-95
2022/12/20 06:59:07;;;;;;;2.30;2.00;;;11.10;99.90;;;;;;5070985;22;20219;-94
2022/12/20 07:01:48;;;;;;;2.90;1.87;;;11.00;99.90;;;;;;5070429;28;20214;-94
2022/12/20 07:05:11;;;;;;;2.67;2.03;;;11.00;99.90;;;;;;5068775;28;20222;-94
2022/12/20 07:07:38;;;;;;;4.83;1.93;;;10.90;99.90;;;;;;5065079;28;20579;-93
2022/12/20 07:10:58;;;;;;;3.30;2.38;;;10.80;99.90;;;;;;5048136;28;20486;-94
2022/12/20 07:14:09;;;;;;;2.40;2.00;;;10.90;99.90;;;;;;5048445;28;20573;-93
2022/12/20 07:16:36;;;;;;;5.60;2.80;;;10.90;99.90;;;;;;5044315;28;20207;-92
2022/12/20 07:19:20;;;;;;;3.03;2.20;;;10.80;99.90;;;;;;5044074;28;20219;-93
2022/12/20 07:22:12;;;;;;;4.10;2.27;;;10.70;99.90;;;;;;5040832;28;20234;-94
2022/12/20 07:30:38;;;;;;;4.93;2.00;;;10.60;99.90;;;;;;5020659;28;20210;-93
2022/12/20 07:33:08;;;;;;;4.10;2.40;;;10.60;99.90;;;;;;5022677;28;20238;-93
2022/12/20 07:35:51;;;;;;;4.47;2.20;;;10.50;99.90;;;;;;5020286;28;20200;-92
2022/12/20 07:38:26;;;;;;;3.80;2.37;;;10.50;99.90;;;;;;5020039;28;20234;-93
2022/12/20 07:41:25;;;;;;;6.67;2.67;;;10.40;99.90;;;;;;5023525;28;20246;-93
2022/12/20 07:43:57;;;;;;;3.50;2.27;;;10.50;99.90;;;;;;5024840;28;20238;-93
2022/12/20 07:46:28;;;;;;;4.43;2.53;;;10.40;99.90;;;;;;5024076;28;20219;-94
2022/12/20 07:49:05;;;;;;;6.60;3.00;;;10.40;99.90;;;;;;5010866;28;20215;-94
2022/12/20 07:51:37;;;;;;;3.53;2.40;;;10.40;99.90;;;;;;5030951;28;20199;-92
2022/12/20 07:54:12;;;;;;;8.37;2.90;;;10.40;99.90;;;;;;5031308;28;20509;-91
2022/12/20 07:56:45;;;;;;;7.47;2.80;;;10.40;99.90;;;;;;5038112;28;20225;-90
2022/12/20 07:59:19;;;;;;;7.70;2.60;;;10.40;99.90;;;;;;5040897;28;20231;-93
2022/12/20 08:01:49;;;;;;;4.05;2.63;;;10.40;99.90;;;;;;5057050;28;20451;-94
2022/12/20 08:04:20;;;;;;;5.03;2.37;;;10.50;99.90;;;;;;5040516;28;20207;-94
2022/12/20 08:06:51;;;;;;;3.57;2.33;;;10.50;99.90;;;;;;5021168;28;20263;-93
2022/12/20 08:09:20;;;;;;;2.73;2.27;;;10.50;99.90;;;;;;5031676;28;20322;-95
2022/12/20 08:11:49;;;;;;;4.60;2.30;;;10.40;99.90;;;;;;5054901;28;20217;-93
2022/12/20 08:14:19;;;;;;;5.37;2.40;;;10.40;99.90;;;;;;5041319;28;20297;-92
2022/12/20 08:16:53;;;;;;;5.63;2.60;;;10.40;99.90;;;;;;5037614;28;20283;-95
2022/12/20 08:19:23;;;;;;;5.50;2.40;;;10.40;99.90;;;;;;5035070;28;20219;-93
2022/12/20 08:21:52;;;;;;;3.70;2.20;;;10.40;99.90;;;;;;5035267;28;20223;-95
2022/12/20 08:24:21;;;;;;;7.83;2.27;;;10.50;99.90;;;;;;5036766;28;20236;-94
2022/12/20 08:26:48;;;;;;;4.93;2.50;;;10.50;99.90;;;;;;5039151;28;20614;-94
2022/12/20 08:29:15;;;;;;;4.73;2.57;;;10.50;99.90;;;;;;5036736;28;20401;-95
2022/12/20 08:31:42;;;;;;;5.87;2.33;;;10.50;99.90;;;;;;5037283;28;20207;-95
2022/12/20 08:34:11;;;;;;;4.30;2.50;;;10.40;99.90;;;;;;5050358;28;20199;-96
2022/12/20 08:36:38;;;;;;;4.87;2.47;;;10.40;99.90;;;;;;5038044;28;20658;-95
2022/12/20 08:39:25;;;;;;;3.80;2.53;;;10.40;99.90;;;;;;5036531;28;20277;-94
2022/12/20 08:41:52;;;;;;;4.33;2.70;;;10.50;99.90;;;;;;5038195;28;20294;-94
2022/12/20 08:44:24;;;;;;;6.23;2.77;;;10.40;99.90;;;;;;5035593;28;20259;-93
2022/12/20 08:46:53;;;;;;;4.87;2.60;;;10.50;99.90;;;;;;5031340;28;20484;-95
2022/12/20 08:49:49;;;;;;;4.47;2.57;;;10.50;99.90;;;;;;5045535;28;20216;-94
2022/12/20 08:52:16;;;;;;;9.43;2.73;;;10.60;99.90;;;;;;5042184;28;20214;-94
2022/12/20 08:54:45;;;;;;;3.77;2.73;;;10.50;99.90;;;;;;5046546;28;20207;-95
2022/12/20 08:57:12;;;;;;;5.10;2.83;;;10.60;99.90;;;;;;5052877;28;20203;-95
2022/12/20 08:59:40;;;;;;;7.90;2.67;;;10.50;99.90;;;;;;5049778;28;20292;-94
2022/12/20 09:02:08;;;;;;;5.40;2.80;;;10.50;99.90;;;;;;5043464;28;20326;-93
2022/12/20 09:07:17;;;;;;;5.87;3.13;;;10.30;99.90;;;;;;5052233;28;20206;-95
2022/12/20 09:09:44;;;;;;;5.13;2.93;;;10.30;99.90;;;;;;5049887;28;20202;-96
2022/12/20 09:12:20;;;;;;;3.53;2.90;;;10.30;99.90;;;;;;5051974;28;20199;-94
2022/12/20 09:17:36;;;;;;;8.07;3.33;;;10.30;99.90;;;;;;5060242;28;20211;-95
2022/12/20 09:20:21;;;;;;;7.83;3.57;;;10.30;99.90;;;;;;5052649;28;20213;-96
2022/12/20 09:22:49;;;;;;;5.23;2.83;;;10.40;99.90;;;;;;5053062;28;20246;-95
2022/12/20 09:25:16;;;;;;;5.20;3.30;;;10.40;99.90;;;;;;5049659;28;20199;-95
2022/12/20 09:27:43;;;;;;;3.77;2.70;;;10.40;99.90;;;;;;5050296;28;20234;-94
2022/12/20 09:30:18;;;;;;;5.83;3.10;;;10.40;99.90;;;;;;5054157;28;20275;-93
2022/12/20 09:32:46;;;;;;;4.43;3.10;;;10.40;99.90;;;;;;5046786;28;20215;-93
2022/12/20 09:35:14;;;;;;;6.00;3.80;;;10.50;99.90;;;;;;5041313;28;20204;-96
2022/12/20 09:37:43;;;;;;;4.90;2.90;;;10.50;99.90;;;;;;5037434;28;20298;-94
2022/12/20 09:40:19;;;;;;;5.77;3.33;;;10.50;99.90;;;;;;5038007;28;20204;-93
2022/12/20 09:43:10;;;;;;;7.37;3.50;;;10.50;99.90;;;;;;5033960;28;20313;-95
2022/12/20 09:45:38;;;;;;;8.53;3.27;;;10.40;99.90;;;;;;5011003;28;20652;-95
2022/12/20 09:48:20;;;;;;;4.53;3.10;;;10.40;99.90;;;;;;5037925;28;20227;-92
2022/12/20 09:50:57;;;;;;;4.13;3.20;;;10.40;99.90;;;;;;5038412;28;20325;-93
2022/12/20 09:53:42;;;;;;;4.77;3.70;;;10.60;99.90;;;;;;5050733;28;20569;-93
2022/12/20 09:56:13;;;;;;;5.50;3.27;;;10.50;99.90;;;;;;5035691;28;20211;-94
2022/12/20 09:58:58;;;;;;;4.20;3.03;;;10.50;99.90;;;;;;5036867;28;20258;-92
2022/12/20 10:01:28;;;;;;;4.97;3.63;;;10.50;99.90;;;;;;5030725;28;20302;-94
2022/12/20 10:04:00;;;;;;;7.20;3.20;;;10.50;99.90;;;;;;5033127;28;20199;-94
2022/12/20 10:06:51;;;;;;;6.53;4.07;;;10.60;99.90;;;;;;5035368;28;20238;-93
2022/12/20 10:09:47;;;;;;;3.70;3.10;;;10.50;99.90;;;;;;5036438;28;20314;-93
2022/12/20 10:12:29;;;;;;;5.47;3.13;;;10.50;99.90;;;;;;5032216;28;20290;-93
2022/12/20 10:15:14;;;;;;;5.13;3.10;;;10.60;99.90;;;;;;5034183;28;20207;-93
2022/12/20 10:17:50;;;;;;;5.03;3.13;;;10.60;99.90;;;;;;5031101;28;20226;-93
2022/12/20 10:20:36;;;;;;;3.60;3.17;;;10.70;99.90;;;;;;5029487;28;20725;-92
2022/12/20 10:23:22;;;;;;;8.13;3.90;;;10.70;99.90;;;;;;5023793;28;20546;-94
2022/12/20 10:25:53;;;;;;;8.13;3.47;;;10.60;99.90;;;;;;5029695;28;20641;-91
2022/12/20 10:28:28;;;;;;;4.93;2.87;;;10.70;99.90;;;;;;5020750;28;20258;-93
2022/12/20 10:31:04;;;;;;;9.60;3.53;;;10.70;99.90;;;;;;5035850;28;20301;-93
2022/12/20 10:33:36;;;;;;;5.87;3.00;;;10.70;99.90;;;;;;5035518;28;20269;-95
2022/12/20 10:36:25;;;;;;;5.50;3.10;;;10.80;99.90;;;;;;5034817;28;20234;-95
2022/12/20 10:38:53;;;;;;;4.00;2.80;;;10.80;99.90;;;;;;5022253;28;20322;-91
2022/12/20 10:41:30;;;;;;;3.40;2.90;;;10.90;99.90;;;;;;5033878;28;20575;-94
2022/12/20 10:44:15;;;;;;;6.17;2.93;;;10.70;99.90;;;;;;5022395;28;20227;-95
2022/12/20 10:46:46;;;;;;;7.37;3.23;;;10.80;99.90;;;;;;5024346;28;20218;-94
2022/12/20 10:49:43;;;;;;;4.20;3.13;;;11.00;99.90;;;;;;5029015;28;20250;-92
2022/12/20 10:52:29;;;;;;;5.23;3.60;;;10.90;99.90;;;;;;5023450;28;20628;-96
2022/12/20 10:54:56;;;;;;;5.00;3.27;;;10.90;99.90;;;;;;5030508;28;20203;-93
2022/12/20 10:57:30;;;;;;;7.07;3.78;;;10.90;99.90;;;;;;5034143;28;20915;-94
2022/12/20 11:00:40;;;;;;;4.60;3.13;;;11.00;99.90;;;;;;5044059;28;20208;-96
2022/12/20 11:03:16;;;;;;;6.03;3.03;;;10.90;99.90;;;;;;5036830;28;20231;-94
2022/12/20 11:05:56;;;;;;;10.27;3.63;;;10.90;99.90;;;;;;5042105;28;20221;-94
2022/12/20 11:08:27;;;;;;;8.10;3.23;;;10.90;99.90;;;;;;5037881;28;20703;-92
2022/12/20 11:11:15;;;;;;;5.40;3.07;;;10.90;99.90;;;;;;5028783;28;20272;-94
2022/12/20 11:13:47;;;;;;;6.97;3.50;;;10.90;99.90;;;;;;5034053;28;20239;-93
2022/12/20 11:16:35;;;;;;;7.30;4.13;;;10.90;99.90;;;;;;5033373;28;20534;-93
2022/12/20 11:19:44;;;;;;;5.20;3.47;;;10.90;99.90;;;;;;5035556;28;20257;-96
2022/12/20 11:22:38;;;;;;;6.40;3.60;;;11.00;99.90;;;;;;5014482;28;20270;-94
2022/12/20 11:25:25;;;;;;;4.73;3.30;;;11.00;99.90;;;;;;5046536;28;20234;-95
2022/12/20 11:28:09;;;;;;;5.57;3.37;;;11.00;99.90;;;;;;5043623;28;20735;-94
2022/12/20 11:30:51;;;;;;;5.60;3.37;;;11.00;99.90;;;;;;5064597;28;20211;-94
2022/12/20 11:33:49;;;;;;;5.60;3.20;;;11.00;99.90;;;;;;5038741;28;20203;-96
2022/12/20 11:36:35;;;;;;;6.40;3.87;;;10.90;99.90;;;;;;5038282;28;20225;-94
2022/12/20 11:39:11;;;;;;;3.97;3.23;;;10.90;99.90;;;;;;5030138;28;20636;-93
2022/12/20 11:41:51;;;;;;;4.47;3.47;;;10.90;99.90;;;;;;5031264;28;20238;-95
2022/12/20 11:44:25;;;;;;;5.43;3.30;;;10.90;99.90;;;;;;5050775;28;20192;-94
2022/12/20 11:47:02;;;;;;;3.70;3.40;;;11.00;99.90;;;;;;5040393;28;20200;-92
2022/12/20 11:49:53;;;;;;;10.10;4.40;;;11.00;99.90;;;;;;5027895;28;20230;-92
2022/12/20 11:52:33;;;;;;;6.00;3.67;;;10.90;99.90;;;;;;5030078;28;20242;-92
2022/12/20 11:55:20;;;;;;;7.60;3.47;;;10.90;99.90;;;;;;5032270;28;20245;-94
2022/12/20 11:57:54;;;;;;;4.90;3.63;;;11.00;99.90;;;;;;5038029;28;20222;-92
2022/12/20 12:00:24;;;;;;;4.33;3.50;;;11.00;99.90;;;;;;5047236;28;20203;-92
2022/12/20 12:02:59;;;;;;;8.83;4.03;;;11.00;99.90;;;;;;5063113;28;20336;-93
2022/12/20 12:05:35;;;;;;;4.70;3.27;;;10.90;99.90;;;;;;5047825;28;20198;-91
2022/12/20 12:08:12;;;;;;;3.93;3.30;;;10.90;99.90;;;;;;5058221;28;20277;-95
2022/12/20 12:10:48;;;;;;;7.03;3.30;;;10.90;99.90;;;;;;5049297;28;20218;-93
2022/12/20 12:13:24;;;;;;;8.80;3.33;;;10.90;99.90;;;;;;5051753;28;20206;-93
2022/12/20 12:15:57;;;;;;;5.97;3.50;;;10.90;99.90;;;;;;5054696;28;20199;-96
2022/12/20 12:18:36;;;;;;;6.60;3.40;;;10.90;99.90;;;;;;5037808;28;20235;-95
2022/12/20 12:21:08;;;;;;;4.20;2.83;;;10.90;99.90;;;;;;5029701;28;20207;-93
2022/12/20 12:24:00;;;;;;;3.77;3.07;;;10.90;99.90;;;;;;5026282;28;20323;-93
2022/12/20 12:26:58;;;;;;;8.17;3.30;;;10.80;99.90;;;;;;5035721;28;20203;-93
2022/12/20 12:32:53;;;;;;;3.87;3.20;;;10.90;99.90;;;;;;5048534;28;20207;-93
2022/12/20 12:39:20;;;;;;;5.93;2.97;;;10.90;99.90;;;;;;5045549;28;20271;-93
2022/12/20 12:42:46;;;;;;;5.00;3.20;;;10.80;99.90;;;;;;5052025;28;20222;-92
2022/12/20 12:45:27;;;;;;;4.63;3.00;;;10.80;99.90;;;;;;4981846;28;20217;-92
2022/12/20 12:51:47;;;;;;;3.23;2.93;;;10.70;99.90;;;;;;4986815;28;20285;-92
2022/12/20 12:54:42;;;;;;;7.00;3.30;;;10.80;99.90;;;;;;4984601;28;20392;-93
2022/12/20 12:57:18;;;;;;;6.80;3.40;;;10.80;99.90;;;;;;5027022;28;20199;-94
2022/12/20 12:59:56;;;;;;;4.73;3.13;;;10.80;99.90;;;;;;5044774;28;20208;-93
2022/12/20 13:02:51;;;;;;;3.53;2.87;;;10.80;99.90;;;;;;5042110;28;20204;-93
2022/12/20 13:05:38;;;;;;;5.70;3.27;;;10.80;99.90;;;;;;5040188;28;20211;-92
2022/12/20 13:08:42;;;;;;;6.88;3.70;;;10.80;99.90;;;;;;5063376;23;20446;-91
2022/12/20 13:11:46;;;;;;;6.03;3.63;;;10.70;99.90;;;;;;5105829;28;20202;-93
2022/12/20 13:18:18;;;;;;;8.37;4.00;;;10.70;99.90;;;;;;5061976;28;20245;-94
2022/12/20 13:24:47;;;;;;;4.90;3.27;;;10.70;99.90;;;;;;5047367;28;20226;-93
2022/12/20 13:31:04;;;;;;;7.63;3.60;;;10.60;99.90;;;;;;5070094;28;20229;-94
2022/12/20 13:37:41;;;;;;;7.83;4.17;;;10.70;99.90;;;;;;5112885;28;20205;-93
2022/12/20 13:40:26;;;;;;;6.57;3.53;;;10.60;99.90;;;;;;5108828;28;20201;-96
2022/12/20 13:43:15;;;;;;;4.63;2.97;;;10.70;99.90;;;;;;5075013;28;20225;-93
2022/12/20 13:45:57;;;;;;;4.30;3.37;;;10.60;99.90;;;;;;5088876;28;20227;-92
2022/12/20 13:48:36;;;;;;;7.90;4.65;;;10.70;99.90;;;;;;5070791;28;20870;-92
2022/12/20 13:51:10;;;;;;;5.40;4.00;;;10.80;99.90;;;;;;5082604;28;20241;-94
2022/12/20 13:53:54;;;;;;;8.13;3.70;;;10.80;99.90;;;;;;5064072;28;20199;-94
2022/12/20 13:59:54;;;;;;;7.27;3.67;;;10.80;99.90;;;;;;5095981;23;20250;-94
2022/12/20 14:02:27;;;;;;;4.50;3.03;;;10.80;99.90;;;;;;5091399;28;20208;-94
2022/12/20 14:05:27;;;;;;;4.67;3.50;;;10.80;99.90;;;;;;5071618;28;20207;-96
2022/12/20 14:08:01;;;;;;;5.70;3.53;;;10.70;99.90;;;;;;5077518;28;20227;-95
2022/12/20 14:10:36;;;;;;;6.23;3.83;;;10.80;99.90;;;;;;5056969;28;20205;-92
2022/12/20 14:13:44;;;;;;;5.83;3.70;;;10.80;99.90;;;;;;5078506;28;20289;-94
2022/12/20 14:16:19;;;;;;;6.50;3.87;;;10.80;99.90;;;;;;5049867;28;20210;-96
2022/12/20 14:19:13;;;;;;;7.97;4.10;;;10.90;99.90;;;;;;5069734;28;20230;-96
2022/12/20 14:21:55;;;;;;;5.23;3.90;;;10.80;99.90;;;;;;5050785;28;20242;-95
2022/12/20 14:24:25;;;;;;;6.37;4.17;;;10.90;99.90;;;;;;5069856;28;20996;-96
2022/12/20 14:27:00;;;;;;;6.90;4.30;;;10.90;99.90;;;;;;5065422;28;20309;-96
2022/12/20 14:29:34;;;;;;;6.50;4.50;;;10.90;99.90;;;;;;5062697;28;20718;-94
2022/12/20 14:32:04;;;;;;;7.47;4.13;;;10.90;99.90;;;;;;5068466;28;20291;-96
2022/12/20 14:34:36;;;;;;;4.83;3.90;;;10.90;99.90;;;;;;5068152;28;20201;-93
2022/12/20 14:37:28;;;;;;;6.67;4.23;;;10.90;99.90;;;;;;5062767;28;20222;-96
2022/12/20 14:39:56;;;;;;;7.07;4.10;;;11.00;99.90;;;;;;5069146;28;20662;-96
2022/12/20 14:42:32;;;;;;;4.10;3.80;;;11.00;99.90;;;;;;5066609;28;20237;-95
2022/12/20 14:45:17;;;;;;;6.93;4.47;;;11.00;99.90;;;;;;5070321;28;20364;-96
2022/12/20 14:47:49;;;;;;;5.73;4.87;;;10.90;99.90;;;;;;5068496;28;20229;-95
2022/12/20 14:50:27;;;;;;;6.53;5.63;;;10.90;99.90;;;;;;5076670;28;20218;-95
2022/12/20 14:53:01;;;;;;;9.47;5.37;;;11.00;99.90;;;;;;5071507;28;20206;-94
2022/12/20 14:55:37;;;;;;;7.93;5.67;;;10.90;99.90;;;;;;5067333;28;20199;-95
2022/12/20 14:58:24;;;;;;;8.03;6.17;;;10.90;99.90;;;;;;5068703;28;20714;-93
2022/12/20 15:01:02;;;;;;;7.77;5.03;;;10.90;99.90;;;;;;5059732;28;20328;-94
2022/12/20 15:03:57;;;;;;;9.43;5.93;;;10.90;99.90;;;;;;5075423;28;20320;-96
2022/12/20 15:06:43;;;;;;;5.53;5.03;;;10.90;99.90;;;;;;5076690;28;20203;-94
2022/12/20 15:09:10;;;;;;;7.20;5.03;;;10.90;99.90;;;;;;5070512;28;20194;-96
2022/12/20 15:11:39;;;;;;;5.73;5.00;;;10.90;99.90;;;;;;5069365;28;20232;-96
2022/12/20 15:14:48;;;;;;;5.87;4.77;;;11.00;99.90;;;;;;5083052;28;20652;-96
2022/12/20 15:17:17;;;;;;;6.27;4.67;;;10.80;99.90;;;;;;5081154;28;20202;-94
2022/12/20 15:19:45;;;;;;;7.53;4.77;;;10.80;99.90;;;;;;5080472;28;20257;-96
2022/12/20 15:22:16;;;;;;;5.80;4.97;;;10.80;99.90;;;;;;5075041;28;20233;-94
2022/12/20 15:24:43;;;;;;;5.17;4.73;;;10.90;99.90;;;;;;5069426;28;20231;-95
2022/12/20 15:27:14;;;;;;;6.73;4.77;;;10.90;99.90;;;;;;5061585;28;20253;-95
2022/12/20 15:29:42;;;;;;;6.43;5.00;;;10.80;99.90;;;;;;5070777;28;20321;-96
2022/12/20 15:32:19;;;;;;;5.80;4.87;;;10.90;99.90;;;;;;5081148;28;20199;-95
2022/12/20 15:34:47;;;;;;;5.60;4.97;;;10.80;99.90;;;;;;5091207;28;20210;-94
2022/12/20 15:37:15;;;;;;;6.90;4.57;;;10.70;99.90;;;;;;5092211;28;20218;-95
2022/12/20 15:39:43;;;;;;;5.00;4.67;;;10.80;99.90;;;;;;5087791;28;20285;-95
2022/12/20 15:42:16;;;;;;;10.97;4.87;;;10.80;99.90;;;;;;5084531;28;20227;-95
2022/12/20 15:44:53;;;;;;;5.50;4.97;;;10.80;99.90;;;;;;5065811;28;20336;-94
2022/12/20 15:47:42;;;;;;;5.27;4.87;;;10.80;99.90;;;;;;5084168;28;20229;-96
2022/12/20 15:50:28;;;;;;;6.20;4.93;;;10.90;99.90;;;;;;5080277;28;20206;-94
2022/12/20 15:55:47;;;;;;;7.30;5.47;;;10.90;99.90;;;;;;5079765;28;20269;-94
2022/12/20 15:58:34;;;;;;;5.63;5.13;;;11.00;99.90;;;;;;5063600;28;20235;-96
2022/12/20 16:01:05;;;;;;;6.30;5.70;;;10.90;99.90;;;;;;5064852;28;20225;-94
2022/12/20 16:03:36;;;;;;;6.47;5.87;;;10.90;99.90;;;;;;5079649;28;20239;-96
2022/12/20 16:06:04;;;;;;;5.93;5.33;;;10.90;99.90;;;;;;5057583;28;20341;-94
2022/12/20 16:12:24;;;;;;;6.73;5.50;;;10.80;99.90;;;;;;5073420;28;20195;-95
2022/12/20 16:17:38;;;;;;;6.00;5.50;;;10.90;99.90;;;;;;5069815;28;20202;-95
2022/12/20 16:24:02;;;;;;;8.77;5.47;;;10.90;99.90;;;;;;5073175;28;20208;-96
2022/12/20 16:27:04;;;;;;;6.37;5.73;;;10.90;99.90;;;;;;5071267;28;20197;-95
2022/12/20 16:29:53;;;;;;;6.73;5.93;;;10.80;99.90;;;;;;5070373;28;20230;-95
2022/12/20 16:32:33;;;;;;;6.37;5.77;;;10.80;99.90;;;;;;5058723;28;20647;-95
2022/12/20 16:35:08;;;;;;;6.47;5.83;;;11.00;99.90;;;;;;5074301;28;20258;-94
2022/12/20 16:37:43;;;;;;;6.67;5.97;;;10.80;99.90;;;;;;5078323;28;20203;-93
2022/12/20 16:40:14;;;;;;;6.83;5.77;;;10.90;99.90;;;;;;5086906;28;20201;-95
2022/12/20 16:42:44;;;;;;;7.63;6.93;;;10.80;99.90;;;;;;5079664;28;20207;-96
2022/12/20 16:45:33;;;;;;;8.87;5.97;;;10.80;99.90;;;;;;5061709;28;20278;-96
2022/12/20 16:48:06;;;;;;;7.37;6.67;;;10.80;99.90;;;;;;5062263;28;20763;-96
2022/12/20 16:50:34;;;;;;;7.53;6.73;;;10.90;99.90;;;;;;5069240;28;20222;-96
2022/12/20 16:53:10;;;;;;;7.77;6.97;;;10.90;99.90;;;;;;5070849;28;20213;-95